Time;durP1;ratioP1;P1;durP2;ratioP2;P2;SDS_P1;SDS_P2;PMS_P1;PMS_P2;Temp;Humidity;BMP_temperature;BMP_pressure;BME280_temperature;BME280_humidity;BME280_pressure;Samples;Min_cycle;Max_cycle;Signal;HPM_P1;HPM_P2
2022/07/04 00:01:57;;;;;;;8.40;7.70;;;;;;;18.26;100.00;99008.80;105009;1273;73427;-76
2022/07/04 00:04:23;;;;;;;7.30;6.70;;;;;;;18.23;100.00;99006.77;104980;1273;61264;-76
2022/07/04 00:06:50;;;;;;;7.60;7.00;;;;;;;18.19;100.00;99006.37;104985;1273;61286;-75
2022/07/04 00:09:16;;;;;;;7.70;7.10;;;;;;;18.17;100.00;99001.73;104997;1272;61153;-74
2022/07/04 00:11:43;;;;;;;7.80;7.10;;;;;;;18.16;100.00;99002.04;105011;1272;70107;-74
2022/07/04 00:14:10;;;;;;;8.10;7.50;;;;;;;18.14;100.00;99007.77;104955;1272;74417;-74
2022/07/04 00:16:36;;;;;;;7.50;6.90;;;;;;;18.13;100.00;99002.13;104957;1273;61400;-74
2022/07/04 00:19:03;;;;;;;7.60;6.90;;;;;;;18.11;100.00;98998.73;105001;1272;61351;-74
2022/07/04 00:21:30;;;;;;;7.40;6.80;;;;;;;18.08;100.00;99002.65;105015;1272;75390;-74
2022/07/04 00:23:57;;;;;;;7.00;6.50;;;;;;;18.06;100.00;99005.56;105014;1273;69299;-75
2022/07/04 00:26:23;;;;;;;8.00;6.70;;;;;;;18.03;100.00;99006.17;104952;1273;73348;-75
2022/07/04 00:28:50;;;;;;;7.90;7.20;;;;;;;17.99;100.00;99007.43;104969;1271;61390;-75
2022/07/04 00:31:16;;;;;;;8.00;7.20;;;;;;;17.95;100.00;99008.20;104970;1273;62358;-75
2022/07/04 00:33:43;;;;;;;8.40;7.60;;;;;;;17.89;100.00;99009.73;105010;1273;61318;-75
2022/07/04 00:36:10;;;;;;;8.00;7.10;;;;;;;17.84;100.00;99004.77;104971;1273;61378;-75
2022/07/04 00:38:36;;;;;;;8.20;7.50;;;;;;;17.82;100.00;99004.27;104999;1271;73165;-76
2022/07/04 00:41:03;;;;;;;9.20;8.40;;;;;;;17.79;100.00;99000.22;104989;1271;61392;-75
2022/07/04 00:43:30;;;;;;;8.50;7.90;;;;;;;17.76;100.00;98997.75;104858;1273;61256;-75
2022/07/04 00:45:57;;;;;;;8.30;7.50;;;;;;;17.75;100.00;99000.03;104835;1273;75149;-76
2022/07/04 00:48:23;;;;;;;8.70;7.70;;;;;;;17.74;100.00;99004.62;104922;1273;69232;-74
2022/07/04 00:50:50;;;;;;;8.60;7.80;;;;;;;17.72;100.00;99003.55;105000;1271;73322;-75
2022/07/04 00:53:21;;;;;;;8.50;7.80;;;;;;;17.70;100.00;99004.84;104945;1272;61292;-76
2022/07/04 00:55:50;;;;;;;8.70;7.90;;;;;;;17.68;100.00;99002.02;104843;1272;61147;-76
2022/07/04 00:58:21;;;;;;;9.70;7.90;;;;;;;17.65;100.00;98997.23;104986;1271;76305;-73
2022/07/04 01:00:49;;;;;;;10.60;9.10;;;;;;;17.64;100.00;98995.05;105077;1271;69119;-74
2022/07/04 01:03:16;;;;;;;9.40;8.50;;;;;;;17.65;100.00;98996.42;104991;1271;73251;-75
2022/07/04 01:05:43;;;;;;;8.60;7.90;;;;;;;17.64;100.00;98997.94;104984;1273;61401;-74
2022/07/04 01:08:11;;;;;;;10.70;8.60;;;;;;;17.62;100.00;99000.20;104944;1273;62134;-74
2022/07/04 01:10:38;;;;;;;10.20;9.20;;;;;;;17.61;100.00;98994.63;104960;1271;76318;-74
2022/07/04 01:13:04;;;;;;;9.20;8.40;;;;;;;17.60;100.00;98991.33;104937;1271;70379;-73
2022/07/04 01:15:31;;;;;;;9.90;8.90;;;;;;;17.60;100.00;98992.95;104922;1272;61379;-75
2022/07/04 01:17:58;;;;;;;9.30;8.50;;;;;;;17.59;100.00;98992.09;104959;1271;61295;-74
2022/07/04 01:20:25;;;;;;;9.70;8.70;;;;;;;17.58;100.00;98993.63;104934;1271;61253;-74
2022/07/04 01:22:51;;;;;;;9.80;8.90;;;;;;;17.57;100.00;98992.49;104980;1271;76395;-75
2022/07/04 01:25:18;;;;;;;9.90;8.90;;;;;;;17.54;100.00;98994.86;104967;1273;69603;-74
2022/07/04 01:27:45;;;;;;;10.80;9.90;;;;;;;17.51;100.00;98999.32;104955;1271;61376;-74
2022/07/04 01:30:12;;;;;;;11.50;10.50;;;;;;;17.47;100.00;99004.58;104795;1273;61334;-74
2022/07/04 01:32:39;;;;;;;10.50;9.50;;;;;;;17.41;100.00;99004.56;104921;1271;61278;-73
2022/07/04 01:35:06;;;;;;;11.00;10.00;;;;;;;17.34;100.00;99003.61;104983;1271;76026;-73
2022/07/04 01:37:33;;;;;;;10.20;9.30;;;;;;;17.26;100.00;99002.19;105088;1271;69420;-73
2022/07/04 01:39:59;;;;;;;11.20;10.20;;;;;;;17.19;100.00;99001.30;104944;1271;73369;-75
2022/07/04 01:42:26;;;;;;;10.30;9.20;;;;;;;17.13;100.00;99006.34;104925;1271;61313;-75
2022/07/04 01:44:52;;;;;;;10.60;9.60;;;;;;;17.07;100.00;99004.69;104943;1271;61792;-74
2022/07/04 01:47:19;;;;;;;10.70;9.80;;;;;;;17.03;100.00;99001.53;104943;1271;76454;-74
2022/07/04 01:49:46;;;;;;;9.90;9.00;;;;;;;16.97;100.00;99005.88;104945;1273;68723;-75
2022/07/04 01:52:13;;;;;;;11.20;10.10;;;;;;;16.89;100.00;99008.23;104957;1273;73151;-74
2022/07/04 01:54:39;;;;;;;10.00;9.10;;;;;;;16.82;100.00;99015.45;104953;1272;61291;-75
2022/07/04 01:57:06;;;;;;;9.70;8.90;;;;;;;16.78;100.00;99020.02;104946;1273;61340;-74
2022/07/04 02:02:18;;;;;;;9.90;9.10;;;;;;;16.66;100.00;99030.04;104991;1271;68739;-74
2022/07/04 02:04:45;;;;;;;10.50;9.50;;;;;;;16.62;100.00;99030.02;104961;1271;72257;-74
2022/07/04 02:07:11;;;;;;;9.90;8.90;;;;;;;16.55;100.00;99037.89;104948;1271;61269;-75
2022/07/04 02:09:38;;;;;;;10.60;9.70;;;;;;;16.49;100.00;99039.19;104890;1273;61375;-74
2022/07/04 02:14:50;;;;;;;9.70;8.70;;;;;;;16.34;100.00;99034.78;104929;1273;69282;-74
2022/07/04 02:17:17;;;;;;;9.90;9.10;;;;;;;16.26;100.00;99035.98;104964;1271;73343;-75
2022/07/04 02:19:43;;;;;;;9.40;8.60;;;;;;;16.20;100.00;99034.91;104968;1271;61257;-74
2022/07/04 02:22:11;;;;;;;12.10;11.10;;;;;;;16.17;100.00;99033.96;104913;1273;61272;-74
2022/07/04 02:24:38;;;;;;;11.70;10.70;;;;;;;16.16;100.00;99032.23;104974;1271;76328;-75
2022/07/04 02:27:05;;;;;;;11.00;10.10;;;;;;;16.16;100.00;99029.88;104845;1273;61322;-74
2022/07/04 02:29:32;;;;;;;10.60;9.70;;;;;;;16.16;100.00;99028.61;104958;1273;73349;-75
2022/07/04 02:31:58;;;;;;;11.50;9.20;;;;;;;16.16;100.00;99026.65;105047;1272;61269;-74
2022/07/04 02:34:25;;;;;;;12.00;10.90;;;;;;;16.15;100.00;99021.59;104998;1272;62022;-75
2022/07/04 02:36:52;;;;;;;10.10;9.20;;;;;;;16.13;100.00;99015.61;104887;1273;75297;-74
2022/07/04 02:39:19;;;;;;;10.50;9.50;;;;;;;16.13;100.00;99018.30;104970;1272;61266;-76
2022/07/04 02:41:46;;;;;;;9.60;8.80;;;;;;;16.12;100.00;99018.56;104987;1272;73999;-75
2022/07/04 02:44:12;;;;;;;8.70;8.00;;;;;;;16.11;100.00;99019.58;105018;1272;61233;-74
2022/07/04 02:46:39;;;;;;;7.70;6.90;;;;;;;16.08;100.00;99022.70;105008;1272;61400;-75
2022/07/04 02:49:05;;;;;;;8.70;7.90;;;;;;;16.04;100.00;99023.82;105038;1273;76311;-74
2022/07/04 02:51:32;;;;;;;9.10;8.40;;;;;;;16.00;100.00;99022.17;105077;1273;70162;-75
2022/07/04 02:53:59;;;;;;;8.90;8.00;;;;;;;15.98;100.00;99018.24;105040;1273;73767;-75
2022/07/04 02:56:26;;;;;;;10.00;9.00;;;;;;;15.99;100.00;99022.42;105008;1273;61401;-74
2022/07/04 02:58:53;;;;;;;11.50;10.50;;;;;;;15.99;100.00;99025.33;104981;1273;61320;-75
2022/07/04 03:01:19;;;;;;;10.40;9.50;;;;;;;16.00;100.00;99028.47;104990;1273;76285;-74
2022/07/04 03:03:47;;;;;;;12.40;11.20;;;;;;;16.03;100.00;99025.17;104987;1273;69357;-74
2022/07/04 03:06:14;;;;;;;13.00;11.70;;;;;;;16.06;100.00;99012.85;104951;1272;74419;-74
2022/07/04 03:08:41;;;;;;;11.90;10.70;;;;;;;16.12;100.00;99013.05;105025;1272;61311;-75
2022/07/04 03:11:07;;;;;;;11.60;10.50;;;;;;;16.18;100.00;99011.98;105012;1273;61266;-76
2022/07/04 03:13:40;;;;;;;11.10;10.10;;;;;;;16.26;100.00;99008.42;105005;1272;75037;-75
2022/07/04 03:16:06;;;;;;;11.80;10.90;;;;;;;16.32;100.00;99011.04;104967;1273;70185;-75
2022/07/04 03:18:33;;;;;;;10.60;9.70;;;;;;;16.39;100.00;99014.59;104940;1273;74539;-75
2022/07/04 03:21:00;;;;;;;12.40;10.20;;;;;;;16.43;100.00;99018.11;104962;1273;61246;-75
2022/07/04 03:23:27;;;;;;;11.60;10.20;;;;;;;16.48;100.00;99016.41;104842;1273;61422;-76
2022/07/04 03:25:53;;;;;;;11.40;10.30;;;;;;;16.50;100.00;99016.76;104962;1273;76640;-75
2022/07/04 03:28:20;;;;;;;11.10;10.10;;;;;;;16.52;100.00;99015.52;104975;1273;61364;-75
2022/07/04 03:30:46;;;;;;;10.90;9.80;;;;;;;16.71;100.00;99022.22;104967;1273;61275;-75
2022/07/04 03:33:13;;;;;;;9.30;8.50;;;;;;;17.69;100.00;99016.25;104938;1273;61260;-75
2022/07/04 03:35:40;;;;;;;9.00;8.10;;;;;;;18.76;100.00;99012.48;105000;1273;61268;-74
2022/07/04 03:38:06;;;;;;;8.90;8.20;;;;;;;19.77;100.00;99015.09;104833;1271;76399;-74
2022/07/04 03:40:35;;;;;;;7.40;6.90;;;;;;;20.61;100.00;99015.39;104957;1273;67305;-74
2022/07/04 03:43:03;;;;;;;8.20;6.90;;;;;;;21.39;100.00;99022.35;104968;1273;72566;-74
2022/07/04 03:45:29;;;;;;;8.20;7.50;;;;;;;22.17;100.00;99019.91;104960;1272;61261;-74
2022/07/04 03:47:56;;;;;;;7.90;7.30;;;;;;;22.92;100.00;99014.48;104950;1271;61253;-74
2022/07/04 03:50:23;;;;;;;7.80;7.20;;;;;;;23.64;99.07;99018.48;104941;1271;75072;-74
2022/07/04 03:52:50;;;;;;;8.00;7.30;;;;;;;24.32;95.38;99013.89;104980;1273;70119;-75
2022/07/04 03:55:17;;;;;;;9.70;8.90;;;;;;;24.85;91.09;99017.02;104949;1271;74302;-75
2022/07/04 03:57:44;;;;;;;8.80;8.10;;;;;;;25.22;88.29;99017.23;104967;1271;61315;-75
2022/07/04 04:00:11;;;;;;;8.70;7.90;;;;;;;25.72;85.73;99018.66;104949;1271;62016;-75
2022/07/04 04:02:39;;;;;;;9.40;8.60;;;;;;;26.16;82.87;99027.31;104447;1273;74534;-75
2022/07/04 04:08:01;;;;;;;9.10;8.20;;;;;;;27.03;78.29;99020.93;104798;1273;74422;-75
2022/07/04 04:10:30;;;;;;;8.40;7.60;;;;;;;27.40;76.17;99020.81;104973;1273;61365;-75
2022/07/04 04:12:57;;;;;;;8.10;7.40;;;;;;;27.71;74.42;99017.09;105001;1271;61432;-75
2022/07/04 04:15:24;;;;;;;7.80;7.20;;;;;;;28.04;72.76;99009.70;104971;1271;76151;-75
2022/07/04 04:17:51;;;;;;;9.60;8.70;;;;;;;28.36;71.40;99013.44;104963;1271;69414;-75
2022/07/04 04:20:17;;;;;;;9.20;8.40;;;;;;;28.67;70.01;99012.85;104948;1273;73396;-75
2022/07/04 04:22:44;;;;;;;9.50;8.70;;;;;;;28.80;68.92;99015.85;104969;1271;61288;-75
2022/07/04 04:25:11;;;;;;;11.40;10.40;;;;;;;28.89;67.72;99016.69;104704;1273;329512;-75
2022/07/04 04:27:38;;;;;;;11.70;10.70;;;;;;;28.89;66.62;99012.58;104863;1273;75191;-73
2022/07/04 04:30:05;;;;;;;13.40;12.30;;;;;;;28.93;65.75;99007.33;104954;1273;70355;-74
2022/07/04 04:32:32;;;;;;;13.50;12.50;;;;;;;29.10;65.20;99002.09;104987;1272;73053;-76
2022/07/04 04:34:59;;;;;;;12.90;11.90;;;;;;;29.18;64.84;99001.65;104897;1273;61315;-76
2022/07/04 04:37:25;;;;;;;13.60;12.50;;;;;;;29.23;64.04;99003.34;104984;1272;61406;-74
2022/07/04 04:39:52;;;;;;;13.00;12.00;;;;;;;29.52;63.71;99005.96;104961;1272;76108;-74
2022/07/04 04:42:19;;;;;;;14.60;13.40;;;;;;;29.83;62.56;99006.28;104845;1273;70148;-74
2022/07/04 04:44:45;;;;;;;15.00;14.00;;;;;;;29.95;61.67;99005.16;104832;1274;74384;-74
2022/07/04 04:47:12;;;;;;;17.90;16.50;;;;;;;30.07;61.34;99006.06;104944;1273;61305;-74
2022/07/04 04:49:38;;;;;;;16.20;14.90;;;;;;;30.28;60.99;99002.66;104836;1275;61753;-75
2022/07/04 04:52:05;;;;;;;15.60;14.40;;;;;;;30.51;60.11;99003.09;104991;1271;75308;-75
2022/07/04 04:54:33;;;;;;;15.10;13.90;;;;;;;30.59;59.10;99001.30;105029;1271;69186;-75
2022/07/04 04:57:00;;;;;;;14.80;13.50;;;;;;;30.64;58.78;99004.06;104934;1272;73492;-74
2022/07/04 04:59:29;;;;;;;14.60;13.30;;;;;;;30.75;58.45;99011.19;104938;1271;61257;-75
2022/07/04 05:01:56;;;;;;;14.80;13.60;;;;;;;30.99;57.73;99005.91;105094;1272;61987;-75
2022/07/04 05:04:23;;;;;;;15.30;13.90;;;;;;;31.02;57.14;99006.06;104869;1273;76101;-75
2022/07/04 05:06:50;;;;;;;14.80;13.70;;;;;;;31.10;56.83;99005.04;104986;1272;70238;-74
2022/07/04 05:09:17;;;;;;;14.30;13.20;;;;;;;31.06;56.21;99008.52;104953;1271;74470;-75
2022/07/04 05:11:44;;;;;;;14.20;13.00;;;;;;;31.00;56.00;99009.70;104923;1271;61315;-74
2022/07/04 05:14:10;;;;;;;15.80;14.60;;;;;;;30.92;55.71;99009.88;104973;1271;61807;-74
2022/07/04 05:16:37;;;;;;;15.60;14.60;;;;;;;30.92;55.65;99007.28;104830;1273;61264;-74
2022/07/04 05:19:04;;;;;;;16.20;14.70;;;;;;;30.95;55.33;99007.85;104948;1271;70257;-74
2022/07/04 05:21:31;;;;;;;16.00;14.70;;;;;;;30.97;55.26;99015.17;104902;1273;71873;-74
2022/07/04 05:23:57;;;;;;;15.30;14.10;;;;;;;30.93;54.90;99018.15;104954;1271;61305;-75
2022/07/04 05:26:24;;;;;;;14.80;13.40;;;;;;;31.04;55.11;99017.99;104956;1272;62193;-76
2022/07/04 05:28:51;;;;;;;16.00;14.70;;;;;;;31.15;54.72;99019.09;104971;1271;74609;-76
2022/07/04 05:31:18;;;;;;;17.00;15.60;;;;;;;31.15;54.25;99018.30;104940;1271;69126;-76
2022/07/04 05:33:44;;;;;;;16.60;15.40;;;;;;;31.34;54.84;99025.00;104941;1271;74392;-76
2022/07/04 05:36:11;;;;;;;16.70;15.30;;;;;;;31.46;54.33;99029.89;104973;1271;61483;-76
2022/07/04 05:38:37;;;;;;;17.00;15.60;;;;;;;31.44;52.97;99032.33;104961;1271;61192;-76
2022/07/04 05:41:04;;;;;;;15.10;13.90;;;;;;;31.20;52.60;99033.63;104999;1271;75196;-76
2022/07/04 05:43:31;;;;;;;15.50;14.20;;;;;;;31.01;51.46;99034.52;104952;1271;61236;-76
2022/07/04 05:45:57;;;;;;;15.90;14.60;;;;;;;31.15;51.61;99029.68;104888;1272;71685;-75
2022/07/04 05:48:24;;;;;;;16.30;15.00;;;;;;;31.35;51.54;99028.48;104930;1271;61129;-75
2022/07/04 05:50:50;;;;;;;16.00;14.60;;;;;;;31.44;50.80;99024.54;104972;1271;62253;-75
2022/07/04 05:53:17;;;;;;;17.00;15.60;;;;;;;31.37;50.39;99026.56;105007;1271;75861;-74
2022/07/04 05:55:44;;;;;;;16.20;15.00;;;;;;;31.37;50.80;99026.13;104998;1271;68607;-75
2022/07/04 05:58:10;;;;;;;16.60;15.20;;;;;;;31.46;50.58;99025.19;104950;1271;61312;-74
2022/07/04 06:00:39;;;;;;;15.30;14.10;;;;;;;31.48;50.31;99017.65;104901;1271;61400;-75
2022/07/04 06:03:06;;;;;;;15.20;14.00;;;;;;;31.56;49.83;99015.48;105046;1271;61239;-75
2022/07/04 06:05:33;;;;;;;15.30;14.10;;;;;;;31.60;49.93;99007.30;104943;1271;75697;-75
2022/07/04 06:08:01;;;;;;;14.60;13.60;;;;;;;31.75;50.07;99006.77;104938;1271;70077;-74
2022/07/04 06:10:29;;;;;;;14.30;13.10;;;;;;;31.93;50.03;98999.85;105001;1271;73198;-75
2022/07/04 06:12:56;;;;;;;15.30;14.10;;;;;;;31.97;49.51;98994.95;104951;1271;61397;-75
2022/07/04 06:15:22;;;;;;;13.90;12.70;;;;;;;31.96;49.31;98997.84;104954;1271;61251;-75
2022/07/04 06:17:49;;;;;;;15.10;13.90;;;;;;;32.11;49.52;98997.95;104909;1273;74189;-74
2022/07/04 06:20:15;;;;;;;14.70;13.40;;;;;;;32.42;49.74;98996.29;104953;1271;69788;-74
2022/07/04 06:22:45;;;;;;;14.70;13.60;;;;;;;32.52;49.22;99001.48;104956;1271;72164;-74
2022/07/04 06:25:17;;;;;;;14.30;13.30;;;;;;;32.56;48.71;98996.59;105001;1271;61238;-75
2022/07/04 06:27:45;;;;;;;15.20;14.10;;;;;;;32.64;48.81;98996.42;104985;1271;61257;-75
2022/07/04 06:30:13;;;;;;;14.50;13.20;;;;;;;32.86;48.52;98994.73;105024;1271;74678;-75
2022/07/04 06:32:47;;;;;;;15.80;14.40;;;;;;;32.95;48.01;98994.28;105043;1271;70453;-74
2022/07/04 06:38:02;;;;;;;15.50;14.10;;;;;;;32.74;46.72;99013.54;104976;1271;61268;-75
2022/07/04 06:40:28;;;;;;;17.00;15.60;;;;;;;32.65;46.93;99011.06;104949;1272;61154;-75
2022/07/04 06:42:55;;;;;;;18.00;16.50;;;;;;;32.77;46.94;99007.09;105015;1271;61307;-75
2022/07/04 06:45:22;;;;;;;15.80;14.60;;;;;;;32.90;46.50;99010.27;104972;1271;61244;-76
2022/07/04 06:47:48;;;;;;;16.60;15.00;;;;;;;32.89;46.38;99010.13;104879;1273;74173;-75
2022/07/04 06:50:15;;;;;;;14.30;13.20;;;;;;;32.85;46.63;99008.06;104962;1271;61279;-76
2022/07/04 06:52:41;;;;;;;14.60;13.30;;;;;;;32.84;46.63;99012.80;104979;1271;61252;-75
2022/07/04 06:55:08;;;;;;;14.40;13.20;;;;;;;32.81;46.44;99010.38;104950;1271;75227;-75
2022/07/04 06:57:35;;;;;;;14.50;13.40;;;;;;;32.56;45.86;99014.56;104966;1271;70143;-75
2022/07/04 07:00:07;;;;;;;13.50;12.50;;;;;;;32.45;46.29;99011.11;104940;1271;74377;-75
2022/07/04 07:02:35;;;;;;;14.90;13.70;;;;;;;32.52;46.71;99007.77;104947;1271;61410;-75
2022/07/04 07:05:02;;;;;;;15.10;13.70;;;;;;;32.59;46.50;99005.25;105001;1271;61268;-75
2022/07/04 07:07:31;;;;;;;13.90;12.70;;;;;;;32.50;46.40;99004.47;104994;1271;75318;-75
2022/07/04 07:09:57;;;;;;;13.80;12.50;;;;;;;32.45;46.43;99002.25;104948;1271;69404;-75
2022/07/04 07:12:24;;;;;;;12.80;11.90;;;;;;;32.23;46.44;99005.66;104916;1271;73424;-75
2022/07/04 07:14:51;;;;;;;11.90;11.10;;;;;;;32.04;46.93;99007.11;104919;1271;61242;-74
2022/07/04 07:17:17;;;;;;;12.90;11.80;;;;;;;31.92;46.79;99009.49;104929;1273;61581;-74
2022/07/04 07:19:44;;;;;;;12.20;11.30;;;;;;;32.00;47.45;99006.98;104976;1271;76009;-76
2022/07/04 07:22:12;;;;;;;11.70;10.80;;;;;;;32.03;47.12;99006.16;105037;1271;70617;-75
2022/07/04 07:24:39;;;;;;;11.40;10.60;;;;;;;31.98;46.40;99003.45;105009;1271;72292;-76
2022/07/04 07:27:08;;;;;;;11.30;10.50;;;;;;;31.94;46.63;99001.22;104976;1271;61447;-77
2022/07/04 07:29:35;;;;;;;12.30;11.40;;;;;;;32.14;46.44;99001.83;105173;1271;61323;-75
2022/07/04 07:32:02;;;;;;;11.40;10.50;;;;;;;32.16;46.05;99004.23;104957;1271;76205;-74
2022/07/04 07:34:29;;;;;;;12.30;11.40;;;;;;;31.75;46.27;99000.59;104961;1271;66931;-75
2022/07/04 07:36:56;;;;;;;12.60;11.40;;;;;;;31.55;47.59;98998.98;104937;1272;74320;-75
2022/07/04 07:39:22;;;;;;;11.60;10.60;;;;;;;31.41;47.30;98999.66;104973;1271;61260;-75
2022/07/04 07:41:49;;;;;;;14.30;10.90;;;;;;;31.24;47.24;98999.45;104963;1271;61321;-75
2022/07/04 07:44:16;;;;;;;11.70;10.70;;;;;;;30.90;46.96;99001.64;104987;1271;75503;-77
2022/07/04 07:46:42;;;;;;;11.40;10.50;;;;;;;30.70;48.40;98999.88;104929;1271;69320;-76
2022/07/04 07:49:09;;;;;;;12.40;11.40;;;;;;;30.60;49.13;98991.63;104967;1271;74462;-75
2022/07/04 07:51:35;;;;;;;11.90;11.00;;;;;;;30.70;49.57;98996.63;105003;1271;61366;-75
2022/07/04 07:54:02;;;;;;;9.50;8.80;;;;;;;30.70;48.46;99001.31;104995;1272;61279;-75
2022/07/04 07:56:29;;;;;;;10.30;9.40;;;;;;;30.57;47.69;99005.25;104980;1271;75103;-75
2022/07/04 07:58:55;;;;;;;10.50;9.70;;;;;;;30.46;48.02;99002.36;105035;1271;69456;-75
2022/07/04 08:01:22;;;;;;;10.90;9.90;;;;;;;30.40;47.69;99002.36;104920;1271;74377;-74
2022/07/04 08:06:34;;;;;;;10.70;9.60;;;;;;;29.87;47.40;99011.73;104998;1271;61794;-76
2022/07/04 08:09:01;;;;;;;11.00;10.10;;;;;;;29.70;48.51;99013.21;105008;1271;76170;-75
2022/07/04 08:11:27;;;;;;;10.20;9.40;;;;;;;29.66;48.67;99010.10;104977;1271;69292;-75
2022/07/04 08:13:54;;;;;;;10.80;9.80;;;;;;;29.76;49.38;99011.17;104920;1271;74188;-75
2022/07/04 08:16:20;;;;;;;10.70;9.80;;;;;;;29.80;48.87;99007.55;104998;1271;61236;-75
2022/07/04 08:18:47;;;;;;;11.60;10.40;;;;;;;29.80;49.36;99008.30;104932;1272;61218;-75
2022/07/04 08:21:14;;;;;;;9.50;8.90;;;;;;;29.93;49.84;99003.14;104980;1271;76027;-76
2022/07/04 08:23:41;;;;;;;9.50;8.80;;;;;;;30.08;49.29;98999.91;105008;1271;69117;-76
2022/07/04 08:26:08;;;;;;;9.60;8.80;;;;;;;30.05;48.83;99004.14;105023;1271;72946;-74
2022/07/04 08:28:34;;;;;;;9.10;8.40;;;;;;;29.96;48.00;99004.77;104962;1271;61262;-75
2022/07/04 08:31:01;;;;;;;9.70;8.70;;;;;;;29.99;47.98;99007.55;104892;1271;61688;-75
2022/07/04 08:33:29;;;;;;;8.50;7.90;;;;;;;29.89;47.54;99009.60;104931;1271;75709;-75
2022/07/04 08:35:56;;;;;;;7.80;7.30;;;;;;;29.80;46.13;99011.47;105010;1271;70113;-76
2022/07/04 08:38:23;;;;;;;8.20;7.70;;;;;;;29.80;46.84;99012.06;104970;1271;74106;-76
2022/07/04 08:40:58;;;;;;;8.70;8.00;;;;;;;29.98;46.94;99012.13;104936;1274;61373;-76
2022/07/04 08:43:26;;;;;;;9.30;8.50;;;;;;;30.18;47.12;99009.88;104585;1274;61445;-76
2022/07/04 08:45:54;;;;;;;9.80;8.90;;;;;;;30.32;47.30;99006.80;104949;1271;76184;-76
2022/07/04 08:48:26;;;;;;;8.00;7.30;;;;;;;30.42;45.37;99009.95;104894;1271;69169;-74
2022/07/04 08:50:59;;;;;;;8.10;7.40;;;;;;;30.41;45.35;99010.89;105015;1271;74325;-75
2022/07/04 08:53:30;;;;;;;7.30;6.80;;;;;;;30.33;44.92;99010.48;104951;1271;61288;-75
2022/07/04 08:58:43;;;;;;;7.20;6.50;;;;;;;30.43;44.56;99007.65;104966;1271;76675;-75
2022/07/04 09:01:14;;;;;;;7.30;6.80;;;;;;;30.50;43.74;99007.48;105005;1271;70371;-75
2022/07/04 09:03:44;;;;;;;7.30;6.80;;;;;;;30.38;42.33;99002.25;104997;1271;72237;-75
2022/07/04 09:06:12;;;;;;;6.80;6.30;;;;;;;30.35;42.59;99003.09;105027;1271;61240;-75
2022/07/04 09:08:40;;;;;;;6.20;5.80;;;;;;;30.34;41.50;99003.41;104961;1271;61163;-75
2022/07/04 09:11:07;;;;;;;7.00;6.60;;;;;;;30.11;41.11;99003.30;105005;1271;75277;-75
2022/07/04 09:13:34;;;;;;;6.50;5.90;;;;;;;30.12;42.36;98998.81;105011;1271;70136;-75
2022/07/04 09:16:01;;;;;;;7.40;5.70;;;;;;;30.44;42.17;98996.30;104830;1271;74257;-75
2022/07/04 09:18:32;;;;;;;6.00;5.50;;;;;;;30.63;42.34;98993.48;105076;1271;61325;-77
2022/07/04 09:21:03;;;;;;;6.10;5.60;;;;;;;31.03;42.24;98989.01;104964;1271;62052;-75
2022/07/04 09:23:33;;;;;;;7.50;6.10;;;;;;;31.44;41.74;98986.81;104772;1274;75193;-76
2022/07/04 09:26:06;;;;;;;6.20;5.50;;;;;;;31.71;41.20;98986.01;104981;1271;70214;-76
2022/07/04 09:28:33;;;;;;;5.80;5.40;;;;;;;31.85;40.58;98984.16;104943;1271;73359;-76
2022/07/04 09:31:00;;;;;;;7.20;6.50;;;;;;;31.90;39.75;98980.21;105006;1271;61408;-76
2022/07/04 09:33:47;;;;;;;6.40;5.80;;;;;;;31.87;39.63;98978.06;104937;1271;61321;-76
2022/07/04 09:36:16;;;;;;;6.80;6.10;;;;;;;31.88;39.87;98976.64;104938;1271;75442;-76
2022/07/04 09:38:43;;;;;;;5.80;5.30;;;;;;;31.98;40.08;98966.90;105009;1271;69269;-76
2022/07/04 09:41:26;;;;;;;6.70;6.00;;;;;;;32.14;39.31;98967.52;104927;1271;73265;-76
2022/07/04 09:44:06;;;;;;;8.30;6.00;;;;;;;32.21;39.68;98968.59;104952;1271;61288;-77
2022/07/04 09:46:33;;;;;;;;;;;;;;;32.43;39.46;98966.13;104906;1272;61151;-76
2022/07/04 09:48:59;;;;;;;10.10;6.60;;;;;;;32.48;39.51;98963.29;104761;1277;75392;-77
2022/07/04 09:51:37;;;;;;;8.80;6.50;;;;;;;32.65;39.93;98956.70;104901;1272;69409;-76
2022/07/04 09:54:31;;;;;;;6.00;5.50;;;;;;;32.91;39.70;98957.67;105116;1271;73073;-75
2022/07/04 09:57:00;;;;;;;6.50;5.90;;;;;;;33.13;38.81;98957.46;104945;1271;61349;-77
2022/07/04 09:59:28;;;;;;;16.20;7.60;;;;;;;33.30;38.40;98956.40;105011;1271;61768;-75
2022/07/04 10:02:09;;;;;;;31.30;8.50;;;;;;;33.28;37.90;98960.39;105013;1271;75373;-75
2022/07/04 10:04:47;;;;;;;14.30;7.30;;;;;;;33.24;37.24;98954.16;104966;1271;70191;-75
2022/07/04 10:07:33;;;;;;;6.30;5.20;;;;;;;33.16;37.31;98954.46;105009;1273;73375;-75
2022/07/04 10:09:59;;;;;;;100.10;15.40;;;;;;;33.09;36.93;98956.28;105007;1273;61276;-75
2022/07/04 10:12:29;;;;;;;70.30;11.50;;;;;;;33.17;37.10;98954.88;104988;1271;61289;-75
2022/07/04 10:14:56;;;;;;;5.40;5.00;;;;;;;33.18;35.69;98947.95;104936;1271;75380;-74
2022/07/04 10:17:23;;;;;;;6.00;5.60;;;;;;;32.98;35.95;98951.48;104973;1271;69366;-74
2022/07/04 10:19:52;;;;;;;37.30;9.80;;;;;;;33.00;37.22;98954.75;104954;1271;74150;-75
2022/07/04 10:22:21;;;;;;;122.80;15.70;;;;;;;33.08;36.75;98947.37;105005;1272;61281;-75
2022/07/04 10:24:48;;;;;;;8.30;5.80;;;;;;;33.21;36.90;98945.60;105067;1272;61249;-75
2022/07/04 10:27:15;;;;;;;5.30;4.90;;;;;;;33.50;36.63;98946.06;104976;1273;75114;-75
2022/07/04 10:29:42;;;;;;;9.00;5.70;;;;;;;33.82;36.34;98947.98;105000;1271;70602;-75
2022/07/04 10:32:09;;;;;;;6.50;4.40;;;;;;;33.86;35.73;98953.68;104997;1271;73503;-76
2022/07/04 10:34:41;;;;;;;6.70;5.00;;;;;;;33.62;34.61;98956.65;104900;1273;61328;-75
2022/07/04 10:37:08;;;;;;;8.30;4.90;;;;;;;33.68;35.42;98957.35;104914;1274;61301;-75
2022/07/04 10:39:35;;;;;;;5.90;4.00;;;;;;;33.64;34.42;98951.88;104939;1273;75183;-75
2022/07/04 10:42:02;;;;;;;5.60;4.40;;;;;;;33.69;34.12;98949.66;104951;1273;70116;-75
2022/07/04 10:44:37;;;;;;;4.20;3.90;;;;;;;33.43;33.02;98942.96;104934;1273;74106;-75
2022/07/04 10:47:04;;;;;;;6.10;4.60;;;;;;;33.06;34.37;98943.92;104953;1273;61260;-76
2022/07/04 10:49:34;;;;;;;3.30;3.10;;;;;;;33.04;34.69;98945.87;104948;1273;61871;-76
2022/07/04 10:52:13;;;;;;;6.70;3.90;;;;;;;33.10;34.72;98950.02;104974;1273;76071;-76
2022/07/04 10:54:42;;;;;;;4.70;3.80;;;;;;;33.30;34.74;98947.73;104990;1273;70384;-75
2022/07/04 10:57:19;;;;;;;5.40;4.50;;;;;;;33.43;35.11;98948.38;104995;1273;74187;-76
2022/07/04 10:59:52;;;;;;;4.30;3.70;;;;;;;33.57;35.21;98945.13;104983;1273;61312;-74
2022/07/04 11:02:26;;;;;;;4.30;4.00;;;;;;;33.57;34.89;98941.71;104921;1273;61418;-75
2022/07/04 11:05:04;;;;;;;3.40;3.10;;;;;;;33.53;35.42;98940.84;104950;1273;75166;-76
2022/07/04 11:07:37;;;;;;;4.50;3.40;;;;;;;33.48;35.47;98937.35;104958;1274;70581;-75
2022/07/04 11:10:20;;;;;;;2.70;2.60;;;;;;;33.47;35.59;98942.86;104952;1273;74477;-75
2022/07/04 11:12:55;;;;;;;3.10;2.90;;;;;;;33.37;34.89;98940.65;105025;1273;61407;-75
2022/07/04 11:15:32;;;;;;;2.20;2.10;;;;;;;33.31;34.88;98931.95;104942;1273;61185;-75
2022/07/04 11:18:05;;;;;;;2.70;2.50;;;;;;;33.19;34.60;98927.17;104939;1273;76485;-76
2022/07/04 11:20:38;;;;;;;2.60;2.40;;;;;;;33.17;35.28;98921.24;104921;1273;70315;-75
2022/07/04 11:23:08;;;;;;;2.70;2.50;;;;;;;33.26;35.56;98925.96;104917;1273;73424;-74
2022/07/04 11:25:36;;;;;;;3.20;2.90;;;;;;;33.20;35.11;98918.95;104772;1273;61271;-77
2022/07/04 11:28:18;;;;;;;2.70;2.50;;;;;;;33.11;35.07;98917.95;104901;1273;61420;-77
2022/07/04 11:30:52;;;;;;;2.50;2.30;;;;;;;33.06;34.87;98916.26;104967;1273;75998;-77
2022/07/04 11:33:21;;;;;;;2.80;2.60;;;;;;;32.97;35.23;98913.98;104935;1273;69817;-76
2022/07/04 11:36:14;;;;;;;2.40;2.20;;;;;;;32.94;34.70;98912.77;104940;1273;73246;-76